sensor_id;sensor_type;location;lat;lon;timestamp;P1;durP1;ratioP1;P2;durP2;ratioP2
75261;SDS011;63859;51.064;4.580;2023-04-25T00:00:03;23.53;;;6.73;;
75261;SDS011;63859;51.064;4.580;2023-04-25T00:02:32;19.30;;;7.23;;
75261;SDS011;63859;51.064;4.580;2023-04-25T00:05:00;19.57;;;5.97;;
75261;SDS011;63859;51.064;4.580;2023-04-25T00:07:26;26.00;;;6.70;;
75261;SDS011;63859;51.064;4.580;2023-04-25T00:09:52;25.00;;;6.83;;
75261;SDS011;63859;51.064;4.580;2023-04-25T00:12:18;16.07;;;6.30;;
75261;SDS011;63859;51.064;4.580;2023-04-25T00:14:43;21.13;;;6.30;;
75261;SDS011;63859;51.064;4.580;2023-04-25T00:17:11;20.43;;;6.50;;
75261;SDS011;63859;51.064;4.580;2023-04-25T00:19:37;23.50;;;6.40;;
75261;SDS011;63859;51.064;4.580;2023-04-25T00:22:03;28.00;;;6.00;;
75261;SDS011;63859;51.064;4.580;2023-04-25T00:24:30;17.10;;;6.00;;
75261;SDS011;63859;51.064;4.580;2023-04-25T00:26:56;22.30;;;6.07;;
75261;SDS011;63859;51.064;4.580;2023-04-25T00:29:21;21.73;;;5.40;;
75261;SDS011;63859;51.064;4.580;2023-04-25T00:31:47;17.13;;;5.43;;
75261;SDS011;63859;51.064;4.580;2023-04-25T00:34:13;19.83;;;5.27;;
75261;SDS011;63859;51.064;4.580;2023-04-25T00:36:38;24.20;;;5.07;;
75261;SDS011;63859;51.064;4.580;2023-04-25T00:39:04;17.27;;;5.27;;
75261;SDS011;63859;51.064;4.580;2023-04-25T00:41:30;22.93;;;5.30;;
75261;SDS011;63859;51.064;4.580;2023-04-25T00:43:55;22.30;;;4.83;;
75261;SDS011;63859;51.064;4.580;2023-04-25T00:46:21;18.27;;;5.03;;
75261;SDS011;63859;51.064;4.580;2023-04-25T00:48:47;22.23;;;5.17;;
75261;SDS011;63859;51.064;4.580;2023-04-25T00:51:14;27.20;;;4.50;;
75261;SDS011;63859;51.064;4.580;2023-04-25T00:53:44;26.97;;;4.60;;
75261;SDS011;63859;51.064;4.580;2023-04-25T00:56:10;18.23;;;4.30;;
75261;SDS011;63859;51.064;4.580;2023-04-25T00:58:36;19.63;;;4.07;;
75261;SDS011;63859;51.064;4.580;2023-04-25T01:01:03;19.83;;;5.07;;
75261;SDS011;63859;51.064;4.580;2023-04-25T01:03:30;26.13;;;4.60;;
75261;SDS011;63859;51.064;4.580;2023-04-25T01:06:05;14.67;;;4.77;;
75261;SDS011;63859;51.064;4.580;2023-04-25T01:08:35;21.90;;;4.80;;
75261;SDS011;63859;51.064;4.580;2023-04-25T01:11:01;18.90;;;4.50;;
75261;SDS011;63859;51.064;4.580;2023-04-25T01:13:27;14.73;;;4.40;;
75261;SDS011;63859;51.064;4.580;2023-04-25T01:15:53;16.13;;;4.50;;
75261;SDS011;63859;51.064;4.580;2023-04-25T01:18:19;20.50;;;4.33;;
75261;SDS011;63859;51.064;4.580;2023-04-25T01:20:45;15.43;;;4.47;;
75261;SDS011;63859;51.064;4.580;2023-04-25T01:23:12;20.53;;;4.93;;
75261;SDS011;63859;51.064;4.580;2023-04-25T01:25:38;24.00;;;5.17;;
75261;SDS011;63859;51.064;4.580;2023-04-25T01:28:05;21.50;;;4.83;;
75261;SDS011;63859;51.064;4.580;2023-04-25T01:30:31;19.30;;;4.60;;
75261;SDS011;63859;51.064;4.580;2023-04-25T01:32:57;19.83;;;4.30;;
75261;SDS011;63859;51.064;4.580;2023-04-25T01:35:24;15.97;;;4.30;;
75261;SDS011;63859;51.064;4.580;2023-04-25T01:37:50;22.53;;;4.23;;
75261;SDS011;63859;51.064;4.580;2023-04-25T01:40:16;16.07;;;4.47;;
75261;SDS011;63859;51.064;4.580;2023-04-25T01:42:44;21.33;;;4.43;;
75261;SDS011;63859;51.064;4.580;2023-04-25T01:45:10;16.10;;;4.83;;
75261;SDS011;63859;51.064;4.580;2023-04-25T01:47:37;20.47;;;4.77;;
75261;SDS011;63859;51.064;4.580;2023-04-25T01:50:04;15.17;;;4.40;;
75261;SDS011;63859;51.064;4.580;2023-04-25T01:52:31;21.07;;;5.10;;
75261;SDS011;63859;51.064;4.580;2023-04-25T01:54:57;13.57;;;4.40;;
75261;SDS011;63859;51.064;4.580;2023-04-25T01:57:24;16.70;;;4.17;;
75261;SDS011;63859;51.064;4.580;2023-04-25T01:59:49;15.03;;;5.03;;
75261;SDS011;63859;51.064;4.580;2023-04-25T02:02:16;18.27;;;4.40;;
75261;SDS011;63859;51.064;4.580;2023-04-25T02:04:41;17.93;;;4.37;;
75261;SDS011;63859;51.064;4.580;2023-04-25T02:07:07;26.03;;;5.30;;
75261;SDS011;63859;51.064;4.580;2023-04-25T02:09:32;17.93;;;5.20;;
75261;SDS011;63859;51.064;4.580;2023-04-25T02:11:58;17.43;;;5.00;;
75261;SDS011;63859;51.064;4.580;2023-04-25T02:14:24;25.97;;;6.33;;
75261;SDS011;63859;51.064;4.580;2023-04-25T02:16:50;25.63;;;5.13;;
75261;SDS011;63859;51.064;4.580;2023-04-25T02:19:16;19.33;;;4.90;;
75261;SDS011;63859;51.064;4.580;2023-04-25T02:21:42;27.03;;;6.30;;
75261;SDS011;63859;51.064;4.580;2023-04-25T02:24:07;25.27;;;5.57;;
75261;SDS011;63859;51.064;4.580;2023-04-25T02:26:33;20.63;;;5.07;;
75261;SDS011;63859;51.064;4.580;2023-04-25T02:28:59;18.73;;;5.27;;
75261;SDS011;63859;51.064;4.580;2023-04-25T02:31:34;20.90;;;5.27;;
75261;SDS011;63859;51.064;4.580;2023-04-25T02:33:59;17.20;;;5.60;;
75261;SDS011;63859;51.064;4.580;2023-04-25T02:36:25;19.63;;;5.10;;
75261;SDS011;63859;51.064;4.580;2023-04-25T02:38:51;24.00;;;5.50;;
75261;SDS011;63859;51.064;4.580;2023-04-25T02:41:17;25.57;;;6.07;;
75261;SDS011;63859;51.064;4.580;2023-04-25T02:43:43;21.17;;;5.53;;
75261;SDS011;63859;51.064;4.580;2023-04-25T02:46:08;22.30;;;5.37;;
75261;SDS011;63859;51.064;4.580;2023-04-25T02:48:34;23.13;;;6.07;;
75261;SDS011;63859;51.064;4.580;2023-04-25T02:51:00;24.90;;;5.33;;
75261;SDS011;63859;51.064;4.580;2023-04-25T02:53:25;23.27;;;5.53;;
75261;SDS011;63859;51.064;4.580;2023-04-25T02:55:51;24.07;;;5.70;;
75261;SDS011;63859;51.064;4.580;2023-04-25T02:58:17;24.73;;;5.30;;
75261;SDS011;63859;51.064;4.580;2023-04-25T03:00:43;28.67;;;5.80;;
75261;SDS011;63859;51.064;4.580;2023-04-25T03:03:09;22.77;;;5.60;;
75261;SDS011;63859;51.064;4.580;2023-04-25T03:05:35;24.37;;;5.53;;
75261;SDS011;63859;51.064;4.580;2023-04-25T03:08:01;28.60;;;5.50;;
75261;SDS011;63859;51.064;4.580;2023-04-25T03:10:27;26.50;;;5.60;;
75261;SDS011;63859;51.064;4.580;2023-04-25T03:12:53;28.60;;;5.63;;
75261;SDS011;63859;51.064;4.580;2023-04-25T03:15:19;20.10;;;5.60;;
75261;SDS011;63859;51.064;4.580;2023-04-25T03:17:44;15.90;;;4.80;;
75261;SDS011;63859;51.064;4.580;2023-04-25T03:20:10;22.00;;;5.40;;
75261;SDS011;63859;51.064;4.580;2023-04-25T03:22:36;18.70;;;5.13;;
75261;SDS011;63859;51.064;4.580;2023-04-25T03:25:02;25.57;;;5.83;;
75261;SDS011;63859;51.064;4.580;2023-04-25T03:27:28;22.33;;;5.40;;
75261;SDS011;63859;51.064;4.580;2023-04-25T03:29:54;18.63;;;5.73;;
75261;SDS011;63859;51.064;4.580;2023-04-25T03:32:20;22.10;;;5.20;;
75261;SDS011;63859;51.064;4.580;2023-04-25T03:34:45;16.90;;;5.50;;
75261;SDS011;63859;51.064;4.580;2023-04-25T03:37:11;18.70;;;4.70;;
75261;SDS011;63859;51.064;4.580;2023-04-25T03:39:37;17.70;;;5.10;;
75261;SDS011;63859;51.064;4.580;2023-04-25T03:42:03;24.43;;;5.03;;
75261;SDS011;63859;51.064;4.580;2023-04-25T03:44:29;18.93;;;4.90;;
75261;SDS011;63859;51.064;4.580;2023-04-25T03:46:54;16.90;;;5.50;;
75261;SDS011;63859;51.064;4.580;2023-04-25T03:49:20;15.43;;;4.57;;
75261;SDS011;63859;51.064;4.580;2023-04-25T03:51:46;13.43;;;4.23;;
75261;SDS011;63859;51.064;4.580;2023-04-25T03:54:12;18.80;;;4.83;;
75261;SDS011;63859;51.064;4.580;2023-04-25T03:56:37;19.70;;;5.10;;
75261;SDS011;63859;51.064;4.580;2023-04-25T03:59:03;21.57;;;5.47;;
75261;SDS011;63859;51.064;4.580;2023-04-25T04:01:29;16.53;;;5.00;;
75261;SDS011;63859;51.064;4.580;2023-04-25T04:03:54;19.77;;;6.17;;
75261;SDS011;63859;51.064;4.580;2023-04-25T04:06:20;18.67;;;5.10;;
75261;SDS011;63859;51.064;4.580;2023-04-25T04:08:46;20.63;;;5.23;;
75261;SDS011;63859;51.064;4.580;2023-04-25T04:11:12;27.37;;;5.37;;
75261;SDS011;63859;51.064;4.580;2023-04-25T04:13:37;15.07;;;5.30;;
75261;SDS011;63859;51.064;4.580;2023-04-25T04:16:03;23.37;;;5.90;;
75261;SDS011;63859;51.064;4.580;2023-04-25T04:18:29;18.60;;;5.90;;
75261;SDS011;63859;51.064;4.580;2023-04-25T04:20:55;18.03;;;5.67;;
75261;SDS011;63859;51.064;4.580;2023-04-25T04:23:23;20.17;;;5.90;;
75261;SDS011;63859;51.064;4.580;2023-04-25T04:25:49;19.33;;;6.27;;
75261;SDS011;63859;51.064;4.580;2023-04-25T04:28:14;20.10;;;6.00;;
75261;SDS011;63859;51.064;4.580;2023-04-25T04:30:41;25.90;;;6.27;;
75261;SDS011;63859;51.064;4.580;2023-04-25T04:33:07;20.00;;;6.27;;
75261;SDS011;63859;51.064;4.580;2023-04-25T04:35:34;16.30;;;5.90;;
75261;SDS011;63859;51.064;4.580;2023-04-25T04:37:59;19.93;;;6.87;;
75261;SDS011;63859;51.064;4.580;2023-04-25T04:40:25;22.50;;;6.70;;
75261;SDS011;63859;51.064;4.580;2023-04-25T04:42:51;21.40;;;6.63;;
75261;SDS011;63859;51.064;4.580;2023-04-25T04:45:18;22.33;;;6.93;;
75261;SDS011;63859;51.064;4.580;2023-04-25T04:47:44;25.13;;;6.60;;
75261;SDS011;63859;51.064;4.580;2023-04-25T04:50:10;18.40;;;6.77;;
75261;SDS011;63859;51.064;4.580;2023-04-25T04:52:36;27.07;;;8.00;;
75261;SDS011;63859;51.064;4.580;2023-04-25T04:55:03;17.90;;;7.10;;
75261;SDS011;63859;51.064;4.580;2023-04-25T04:57:30;24.17;;;6.40;;
75261;SDS011;63859;51.064;4.580;2023-04-25T04:59:57;22.33;;;7.50;;
75261;SDS011;63859;51.064;4.580;2023-04-25T05:02:24;24.27;;;7.27;;
75261;SDS011;63859;51.064;4.580;2023-04-25T05:04:50;23.93;;;7.63;;
75261;SDS011;63859;51.064;4.580;2023-04-25T05:07:16;22.70;;;7.53;;
75261;SDS011;63859;51.064;4.580;2023-04-25T05:09:43;24.20;;;6.87;;
75261;SDS011;63859;51.064;4.580;2023-04-25T05:12:09;22.30;;;7.23;;
75261;SDS011;63859;51.064;4.580;2023-04-25T05:14:35;23.17;;;6.37;;
75261;SDS011;63859;51.064;4.580;2023-04-25T05:17:00;22.30;;;6.90;;
75261;SDS011;63859;51.064;4.580;2023-04-25T05:19:26;21.90;;;6.30;;
75261;SDS011;63859;51.064;4.580;2023-04-25T05:21:52;23.53;;;6.50;;
75261;SDS011;63859;51.064;4.580;2023-04-25T05:24:17;25.03;;;6.73;;
75261;SDS011;63859;51.064;4.580;2023-04-25T05:29:11;17.33;;;6.77;;
75261;SDS011;63859;51.064;4.580;2023-04-25T05:31:37;22.27;;;7.30;;
75261;SDS011;63859;51.064;4.580;2023-04-25T05:34:03;18.40;;;6.23;;
75261;SDS011;63859;51.064;4.580;2023-04-25T05:36:28;24.30;;;7.53;;
75261;SDS011;63859;51.064;4.580;2023-04-25T05:38:55;21.90;;;6.03;;
75261;SDS011;63859;51.064;4.580;2023-04-25T05:41:21;22.10;;;6.03;;
75261;SDS011;63859;51.064;4.580;2023-04-25T05:43:46;22.40;;;6.50;;
75261;SDS011;63859;51.064;4.580;2023-04-25T05:46:14;20.87;;;6.00;;
75261;SDS011;63859;51.064;4.580;2023-04-25T05:48:42;20.27;;;5.87;;
75261;SDS011;63859;51.064;4.580;2023-04-25T05:51:08;20.00;;;6.70;;
75261;SDS011;63859;51.064;4.580;2023-04-25T05:53:34;20.07;;;6.30;;
75261;SDS011;63859;51.064;4.580;2023-04-25T05:56:00;21.43;;;6.40;;
75261;SDS011;63859;51.064;4.580;2023-04-25T05:58:26;22.83;;;5.50;;
75261;SDS011;63859;51.064;4.580;2023-04-25T06:00:51;17.73;;;5.17;;
75261;SDS011;63859;51.064;4.580;2023-04-25T06:03:17;22.87;;;5.80;;
75261;SDS011;63859;51.064;4.580;2023-04-25T06:05:43;23.87;;;6.03;;
75261;SDS011;63859;51.064;4.580;2023-04-25T06:08:09;19.47;;;5.70;;
75261;SDS011;63859;51.064;4.580;2023-04-25T06:10:38;22.63;;;5.23;;
75261;SDS011;63859;51.064;4.580;2023-04-25T06:13:04;19.40;;;5.57;;
75261;SDS011;63859;51.064;4.580;2023-04-25T06:15:30;17.87;;;4.97;;
75261;SDS011;63859;51.064;4.580;2023-04-25T06:17:57;18.20;;;5.20;;
75261;SDS011;63859;51.064;4.580;2023-04-25T06:20:23;25.43;;;5.90;;
75261;SDS011;63859;51.064;4.580;2023-04-25T06:22:49;21.37;;;5.10;;
75261;SDS011;63859;51.064;4.580;2023-04-25T06:25:16;25.33;;;5.70;;
75261;SDS011;63859;51.064;4.580;2023-04-25T06:27:42;26.70;;;7.60;;
75261;SDS011;63859;51.064;4.580;2023-04-25T06:30:08;25.13;;;5.90;;
75261;SDS011;63859;51.064;4.580;2023-04-25T06:32:34;32.47;;;5.97;;
75261;SDS011;63859;51.064;4.580;2023-04-25T06:35:00;36.90;;;6.53;;
75261;SDS011;63859;51.064;4.580;2023-04-25T06:37:26;26.40;;;5.70;;
75261;SDS011;63859;51.064;4.580;2023-04-25T06:39:52;22.90;;;6.07;;
75261;SDS011;63859;51.064;4.580;2023-04-25T06:42:17;24.03;;;6.63;;
75261;SDS011;63859;51.064;4.580;2023-04-25T06:44:43;40.87;;;7.67;;
75261;SDS011;63859;51.064;4.580;2023-04-25T06:47:09;34.23;;;7.73;;
75261;SDS011;63859;51.064;4.580;2023-04-25T06:49:35;22.47;;;7.07;;
75261;SDS011;63859;51.064;4.580;2023-04-25T06:52:00;42.10;;;7.87;;
75261;SDS011;63859;51.064;4.580;2023-04-25T06:54:26;20.53;;;5.77;;
75261;SDS011;63859;51.064;4.580;2023-04-25T06:56:54;21.70;;;5.23;;
75261;SDS011;63859;51.064;4.580;2023-04-25T06:59:20;27.40;;;5.50;;
75261;SDS011;63859;51.064;4.580;2023-04-25T07:01:46;21.33;;;5.67;;
75261;SDS011;63859;51.064;4.580;2023-04-25T07:04:12;18.03;;;5.50;;
75261;SDS011;63859;51.064;4.580;2023-04-25T07:06:37;19.40;;;5.23;;
75261;SDS011;63859;51.064;4.580;2023-04-25T07:09:07;17.20;;;4.63;;
75261;SDS011;63859;51.064;4.580;2023-04-25T07:11:35;13.67;;;4.70;;
75261;SDS011;63859;51.064;4.580;2023-04-25T07:14:01;21.83;;;4.77;;
75261;SDS011;63859;51.064;4.580;2023-04-25T07:16:27;19.63;;;3.97;;
75261;SDS011;63859;51.064;4.580;2023-04-25T07:18:53;22.00;;;4.40;;
75261;SDS011;63859;51.064;4.580;2023-04-25T07:21:19;19.60;;;4.03;;
75261;SDS011;63859;51.064;4.580;2023-04-25T07:23:44;16.00;;;3.80;;
75261;SDS011;63859;51.064;4.580;2023-04-25T07:26:10;10.10;;;3.03;;
75261;SDS011;63859;51.064;4.580;2023-04-25T07:28:36;15.57;;;3.53;;
75261;SDS011;63859;51.064;4.580;2023-04-25T07:31:02;11.07;;;3.30;;
75261;SDS011;63859;51.064;4.580;2023-04-25T07:33:27;17.80;;;4.10;;
75261;SDS011;63859;51.064;4.580;2023-04-25T07:35:54;14.97;;;3.33;;
75261;SDS011;63859;51.064;4.580;2023-04-25T07:38:20;17.10;;;4.00;;
75261;SDS011;63859;51.064;4.580;2023-04-25T07:40:47;18.43;;;3.70;;
75261;SDS011;63859;51.064;4.580;2023-04-25T07:43:13;17.67;;;4.00;;
75261;SDS011;63859;51.064;4.580;2023-04-25T07:45:41;12.90;;;3.20;;
75261;SDS011;63859;51.064;4.580;2023-04-25T07:48:08;14.23;;;3.60;;
75261;SDS011;63859;51.064;4.580;2023-04-25T07:50:33;22.60;;;5.00;;
75261;SDS011;63859;51.064;4.580;2023-04-25T07:52:59;14.00;;;3.60;;
75261;SDS011;63859;51.064;4.580;2023-04-25T07:55:25;14.43;;;3.00;;
75261;SDS011;63859;51.064;4.580;2023-04-25T07:57:50;12.67;;;3.50;;
75261;SDS011;63859;51.064;4.580;2023-04-25T08:00:16;13.20;;;3.10;;
75261;SDS011;63859;51.064;4.580;2023-04-25T08:02:42;28.23;;;4.13;;
75261;SDS011;63859;51.064;4.580;2023-04-25T08:05:08;11.97;;;3.70;;
75261;SDS011;63859;51.064;4.580;2023-04-25T08:07:36;12.83;;;3.50;;
75261;SDS011;63859;51.064;4.580;2023-04-25T08:10:04;8.30;;;3.07;;
75261;SDS011;63859;51.064;4.580;2023-04-25T08:12:31;12.47;;;3.10;;
75261;SDS011;63859;51.064;4.580;2023-04-25T08:14:56;8.93;;;2.73;;
75261;SDS011;63859;51.064;4.580;2023-04-25T08:17:22;9.30;;;2.77;;
75261;SDS011;63859;51.064;4.580;2023-04-25T08:19:48;17.40;;;3.70;;
75261;SDS011;63859;51.064;4.580;2023-04-25T08:22:14;9.37;;;3.10;;
75261;SDS011;63859;51.064;4.580;2023-04-25T08:24:40;13.77;;;3.43;;
75261;SDS011;63859;51.064;4.580;2023-04-25T08:27:06;12.70;;;3.13;;
75261;SDS011;63859;51.064;4.580;2023-04-25T08:29:32;15.63;;;3.30;;
75261;SDS011;63859;51.064;4.580;2023-04-25T08:31:59;13.23;;;3.20;;
75261;SDS011;63859;51.064;4.580;2023-04-25T08:34:25;10.40;;;2.73;;
75261;SDS011;63859;51.064;4.580;2023-04-25T08:36:51;15.93;;;3.70;;
75261;SDS011;63859;51.064;4.580;2023-04-25T08:39:17;15.80;;;2.67;;
75261;SDS011;63859;51.064;4.580;2023-04-25T08:41:42;14.37;;;3.07;;
75261;SDS011;63859;51.064;4.580;2023-04-25T08:44:12;9.17;;;2.73;;
75261;SDS011;63859;51.064;4.580;2023-04-25T08:46:38;12.93;;;3.10;;
75261;SDS011;63859;51.064;4.580;2023-04-25T08:49:08;8.43;;;2.27;;
75261;SDS011;63859;51.064;4.580;2023-04-25T08:51:34;14.07;;;2.63;;
75261;SDS011;63859;51.064;4.580;2023-04-25T08:54:07;28.03;;;4.47;;
75261;SDS011;63859;51.064;4.580;2023-04-25T08:56:35;8.90;;;2.60;;
75261;SDS011;63859;51.064;4.580;2023-04-25T08:59:02;10.40;;;2.50;;
75261;SDS011;63859;51.064;4.580;2023-04-25T09:01:28;11.30;;;2.27;;
75261;SDS011;63859;51.064;4.580;2023-04-25T09:03:54;12.43;;;2.97;;
75261;SDS011;63859;51.064;4.580;2023-04-25T09:06:20;7.23;;;2.20;;
75261;SDS011;63859;51.064;4.580;2023-04-25T09:08:49;11.90;;;2.43;;
75261;SDS011;63859;51.064;4.580;2023-04-25T09:11:15;4.97;;;2.23;;
75261;SDS011;63859;51.064;4.580;2023-04-25T09:13:41;6.80;;;2.10;;
75261;SDS011;63859;51.064;4.580;2023-04-25T09:16:07;11.30;;;2.73;;
75261;SDS011;63859;51.064;4.580;2023-04-25T09:18:33;16.70;;;2.70;;
75261;SDS011;63859;51.064;4.580;2023-04-25T09:21:08;11.77;;;2.80;;
75261;SDS011;63859;51.064;4.580;2023-04-25T09:23:41;11.90;;;2.67;;
75261;SDS011;63859;51.064;4.580;2023-04-25T09:26:13;7.33;;;2.40;;
75261;SDS011;63859;51.064;4.580;2023-04-25T09:28:44;9.93;;;2.53;;
75261;SDS011;63859;51.064;4.580;2023-04-25T09:31:10;8.17;;;2.50;;
75261;SDS011;63859;51.064;4.580;2023-04-25T09:33:36;7.20;;;2.20;;
75261;SDS011;63859;51.064;4.580;2023-04-25T09:36:06;11.87;;;2.50;;
75261;SDS011;63859;51.064;4.580;2023-04-25T09:38:44;7.73;;;2.40;;
75261;SDS011;63859;51.064;4.580;2023-04-25T09:41:11;9.00;;;2.20;;
75261;SDS011;63859;51.064;4.580;2023-04-25T09:43:37;8.37;;;2.10;;
75261;SDS011;63859;51.064;4.580;2023-04-25T09:46:07;10.13;;;2.27;;
75261;SDS011;63859;51.064;4.580;2023-04-25T09:48:34;5.77;;;2.20;;
75261;SDS011;63859;51.064;4.580;2023-04-25T09:51:10;6.13;;;1.90;;
75261;SDS011;63859;51.064;4.580;2023-04-25T09:53:39;6.43;;;2.07;;
75261;SDS011;63859;51.064;4.580;2023-04-25T09:56:08;8.10;;;2.67;;
75261;SDS011;63859;51.064;4.580;2023-04-25T09:58:35;7.73;;;2.20;;
75261;SDS011;63859;51.064;4.580;2023-04-25T10:01:06;11.17;;;2.70;;
75261;SDS011;63859;51.064;4.580;2023-04-25T10:03:33;8.57;;;2.13;;
75261;SDS011;63859;51.064;4.580;2023-04-25T10:06:01;6.50;;;1.90;;
75261;SDS011;63859;51.064;4.580;2023-04-25T10:08:33;6.80;;;1.90;;
75261;SDS011;63859;51.064;4.580;2023-04-25T10:11:02;10.02;;;2.17;;
75261;SDS011;63859;51.064;4.580;2023-04-25T10:13:29;6.03;;;2.23;;
75261;SDS011;63859;51.064;4.580;2023-04-25T10:15:59;8.70;;;2.20;;
75261;SDS011;63859;51.064;4.580;2023-04-25T10:18:26;6.60;;;1.90;;
75261;SDS011;63859;51.064;4.580;2023-04-25T10:20:57;4.93;;;2.55;;
75261;SDS011;63859;51.064;4.580;2023-04-25T10:23:24;8.20;;;2.20;;
75261;SDS011;63859;51.064;4.580;2023-04-25T10:25:51;3.87;;;1.70;;
75261;SDS011;63859;51.064;4.580;2023-04-25T10:28:18;7.10;;;1.93;;
75261;SDS011;63859;51.064;4.580;2023-04-25T10:33:36;5.67;;;2.03;;
75261;SDS011;63859;51.064;4.580;2023-04-25T10:36:13;14.07;;;3.13;;
75261;SDS011;63859;51.064;4.580;2023-04-25T10:38:42;10.23;;;2.10;;
75261;SDS011;63859;51.064;4.580;2023-04-25T10:41:09;6.22;;;1.85;;
75261;SDS011;63859;51.064;4.580;2023-04-25T10:46:18;5.30;;;1.98;;
75261;SDS011;63859;51.064;4.580;2023-04-25T10:51:20;7.27;;;2.03;;
75261;SDS011;63859;51.064;4.580;2023-04-25T10:53:57;4.97;;;1.93;;
75261;SDS011;63859;51.064;4.580;2023-04-25T10:59:14;9.10;;;2.33;;
75261;SDS011;63859;51.064;4.580;2023-04-25T11:01:53;10.20;;;1.97;;
75261;SDS011;63859;51.064;4.580;2023-04-25T11:04:28;9.60;;;2.88;;
75261;SDS011;63859;51.064;4.580;2023-04-25T11:07:11;8.67;;;2.47;;
75261;SDS011;63859;51.064;4.580;2023-04-25T11:09:47;9.97;;;2.73;;
75261;SDS011;63859;51.064;4.580;2023-04-25T11:12:15;6.43;;;1.90;;
75261;SDS011;63859;51.064;4.580;2023-04-25T11:14:42;7.17;;;1.90;;
75261;SDS011;63859;51.064;4.580;2023-04-25T11:17:07;5.97;;;1.75;;
75261;SDS011;63859;51.064;4.580;2023-04-25T11:19:33;5.63;;;1.70;;
75261;SDS011;63859;51.064;4.580;2023-04-25T11:22:00;8.38;;;2.00;;
75261;SDS011;63859;51.064;4.580;2023-04-25T11:24:30;9.52;;;2.05;;
75261;SDS011;63859;51.064;4.580;2023-04-25T11:27:00;9.38;;;2.08;;
75261;SDS011;63859;51.064;4.580;2023-04-25T11:29:28;5.32;;;2.00;;
75261;SDS011;63859;51.064;4.580;2023-04-25T11:31:55;7.28;;;2.00;;
75261;SDS011;63859;51.064;4.580;2023-04-25T11:34:24;7.97;;;2.08;;
75261;SDS011;63859;51.064;4.580;2023-04-25T11:36:51;5.00;;;2.00;;
75261;SDS011;63859;51.064;4.580;2023-04-25T11:39:18;5.95;;;1.95;;
75261;SDS011;63859;51.064;4.580;2023-04-25T11:41:44;5.35;;;1.80;;
75261;SDS011;63859;51.064;4.580;2023-04-25T11:44:11;5.20;;;1.67;;
75261;SDS011;63859;51.064;4.580;2023-04-25T11:46:40;4.47;;;1.67;;
75261;SDS011;63859;51.064;4.580;2023-04-25T11:49:05;3.83;;;1.45;;
75261;SDS011;63859;51.064;4.580;2023-04-25T11:51:37;5.53;;;1.80;;
75261;SDS011;63859;51.064;4.580;2023-04-25T11:54:04;8.52;;;2.13;;
75261;SDS011;63859;51.064;4.580;2023-04-25T11:56:30;6.22;;;1.83;;
75261;SDS011;63859;51.064;4.580;2023-04-25T11:59:03;4.22;;;1.60;;
75261;SDS011;63859;51.064;4.580;2023-04-25T12:01:33;6.22;;;1.80;;
75261;SDS011;63859;51.064;4.580;2023-04-25T12:06:49;3.50;;;1.50;;
75261;SDS011;63859;51.064;4.580;2023-04-25T12:09:20;8.90;;;1.67;;
75261;SDS011;63859;51.064;4.580;2023-04-25T12:11:54;3.22;;;1.65;;
75261;SDS011;63859;51.064;4.580;2023-04-25T12:14:25;3.42;;;1.60;;
75261;SDS011;63859;51.064;4.580;2023-04-25T12:16:52;5.90;;;1.60;;
75261;SDS011;63859;51.064;4.580;2023-04-25T12:19:20;5.25;;;1.50;;
75261;SDS011;63859;51.064;4.580;2023-04-25T12:21:47;6.07;;;1.38;;
75261;SDS011;63859;51.064;4.580;2023-04-25T12:24:33;4.53;;;1.80;;
75261;SDS011;63859;51.064;4.580;2023-04-25T12:27:03;3.63;;;1.73;;
75261;SDS011;63859;51.064;4.580;2023-04-25T12:29:30;8.00;;;1.70;;
75261;SDS011;63859;51.064;4.580;2023-04-25T12:31:57;6.35;;;1.70;;
75261;SDS011;63859;51.064;4.580;2023-04-25T12:34:23;5.18;;;1.50;;
75261;SDS011;63859;51.064;4.580;2023-04-25T12:36:50;2.92;;;1.48;;
75261;SDS011;63859;51.064;4.580;2023-04-25T12:39:16;7.05;;;1.95;;
75261;SDS011;63859;51.064;4.580;2023-04-25T12:41:44;4.43;;;1.40;;
75261;SDS011;63859;51.064;4.580;2023-04-25T12:44:10;6.10;;;1.75;;
75261;SDS011;63859;51.064;4.580;2023-04-25T12:46:36;5.95;;;1.80;;
75261;SDS011;63859;51.064;4.580;2023-04-25T12:49:03;5.00;;;1.70;;
75261;SDS011;63859;51.064;4.580;2023-04-25T12:51:29;9.60;;;2.20;;
75261;SDS011;63859;51.064;4.580;2023-04-25T12:53:57;4.88;;;1.70;;
75261;SDS011;63859;51.064;4.580;2023-04-25T12:56:24;4.72;;;2.25;;
75261;SDS011;63859;51.064;4.580;2023-04-25T12:58:50;5.45;;;1.50;;
75261;SDS011;63859;51.064;4.580;2023-04-25T13:01:17;5.05;;;1.60;;
75261;SDS011;63859;51.064;4.580;2023-04-25T13:03:42;4.95;;;1.50;;
75261;SDS011;63859;51.064;4.580;2023-04-25T13:06:08;10.27;;;1.65;;
75261;SDS011;63859;51.064;4.580;2023-04-25T13:08:34;7.90;;;1.67;;
75261;SDS011;63859;51.064;4.580;2023-04-25T13:11:01;4.43;;;1.50;;
75261;SDS011;63859;51.064;4.580;2023-04-25T13:13:28;6.03;;;1.80;;
75261;SDS011;63859;51.064;4.580;2023-04-25T13:15:54;8.55;;;1.48;;
75261;SDS011;63859;51.064;4.580;2023-04-25T13:18:20;4.05;;;1.73;;
75261;SDS011;63859;51.064;4.580;2023-04-25T13:20:46;5.90;;;1.52;;
75261;SDS011;63859;51.064;4.580;2023-04-25T13:23:11;5.35;;;1.15;;
75261;SDS011;63859;51.064;4.580;2023-04-25T13:25:37;7.30;;;1.40;;
75261;SDS011;63859;51.064;4.580;2023-04-25T13:28:03;4.28;;;1.67;;
75261;SDS011;63859;51.064;4.580;2023-04-25T13:30:29;4.57;;;1.70;;
75261;SDS011;63859;51.064;4.580;2023-04-25T13:32:55;5.07;;;1.80;;
75261;SDS011;63859;51.064;4.580;2023-04-25T13:35:22;9.45;;;1.88;;
75261;SDS011;63859;51.064;4.580;2023-04-25T13:37:47;7.07;;;1.90;;
75261;SDS011;63859;51.064;4.580;2023-04-25T13:40:13;6.45;;;1.75;;
75261;SDS011;63859;51.064;4.580;2023-04-25T13:42:39;7.15;;;2.20;;
75261;SDS011;63859;51.064;4.580;2023-04-25T13:45:05;6.68;;;1.60;;
75261;SDS011;63859;51.064;4.580;2023-04-25T13:47:32;13.48;;;1.83;;
75261;SDS011;63859;51.064;4.580;2023-04-25T13:49:58;6.40;;;2.13;;
75261;SDS011;63859;51.064;4.580;2023-04-25T13:52:24;10.07;;;2.58;;
75261;SDS011;63859;51.064;4.580;2023-04-25T13:54:50;6.85;;;1.98;;
75261;SDS011;63859;51.064;4.580;2023-04-25T13:57:17;6.75;;;1.90;;
75261;SDS011;63859;51.064;4.580;2023-04-25T13:59:43;6.70;;;1.67;;
75261;SDS011;63859;51.064;4.580;2023-04-25T14:02:08;7.75;;;1.83;;
75261;SDS011;63859;51.064;4.580;2023-04-25T14:04:34;10.70;;;2.15;;
75261;SDS011;63859;51.064;4.580;2023-04-25T14:07:00;7.22;;;2.08;;
75261;SDS011;63859;51.064;4.580;2023-04-25T14:09:27;5.25;;;1.58;;
75261;SDS011;63859;51.064;4.580;2023-04-25T14:11:53;5.80;;;1.80;;
75261;SDS011;63859;51.064;4.580;2023-04-25T14:14:20;8.05;;;2.15;;
75261;SDS011;63859;51.064;4.580;2023-04-25T14:16:46;6.85;;;1.70;;
75261;SDS011;63859;51.064;4.580;2023-04-25T14:19:13;3.83;;;1.60;;
75261;SDS011;63859;51.064;4.580;2023-04-25T14:21:39;6.75;;;1.70;;
75261;SDS011;63859;51.064;4.580;2023-04-25T14:24:05;5.03;;;1.70;;
75261;SDS011;63859;51.064;4.580;2023-04-25T14:26:33;3.65;;;1.70;;
75261;SDS011;63859;51.064;4.580;2023-04-25T14:28:59;4.82;;;1.60;;
75261;SDS011;63859;51.064;4.580;2023-04-25T14:31:25;7.95;;;1.65;;
75261;SDS011;63859;51.064;4.580;2023-04-25T14:33:51;5.38;;;1.80;;
75261;SDS011;63859;51.064;4.580;2023-04-25T14:36:17;5.72;;;1.80;;
75261;SDS011;63859;51.064;4.580;2023-04-25T14:38:43;6.32;;;1.98;;
75261;SDS011;63859;51.064;4.580;2023-04-25T14:41:09;5.78;;;1.85;;
75261;SDS011;63859;51.064;4.580;2023-04-25T14:43:35;7.13;;;1.90;;
75261;SDS011;63859;51.064;4.580;2023-04-25T14:46:01;5.55;;;2.10;;
75261;SDS011;63859;51.064;4.580;2023-04-25T14:48:28;7.40;;;2.50;;
75261;SDS011;63859;51.064;4.580;2023-04-25T14:50:54;4.30;;;1.67;;